createdAt,value
2023-02-11T00:00:46.924Z,26.47
2023-02-11T00:03:16.511Z,26.43
2023-02-11T00:05:46.240Z,26.22
2023-02-11T00:08:18.097Z,26.05
2023-02-11T00:10:53.216Z,26.05
2023-02-11T00:13:24.611Z,26.18
2023-02-11T00:15:57.337Z,26.32
2023-02-11T00:18:27.883Z,26.35
2023-02-11T00:20:57.586Z,26.02
2023-02-11T00:23:27.454Z,25.93
2023-02-11T00:25:57.513Z,25.88
2023-02-11T00:28:28.255Z,25.91
2023-02-11T00:30:59.486Z,26.02
2023-02-11T00:33:30.054Z,25.96
2023-02-11T00:36:00.072Z,26.05
2023-02-11T00:38:29.578Z,26.03
2023-02-11T00:41:00.870Z,25.72
2023-02-11T00:43:31.146Z,25.89
2023-02-11T00:46:01.057Z,25.65
2023-02-11T00:48:32.645Z,25.41
2023-02-11T00:51:05.323Z,25.48
2023-02-11T00:53:36.261Z,25.69
2023-02-11T00:56:07.215Z,25.78
2023-02-11T00:58:38.412Z,25.67
2023-02-11T01:01:09.121Z,25.67
2023-02-11T01:03:39.213Z,25.64
2023-02-11T01:06:10.589Z,25.35
2023-02-11T01:08:41.105Z,25.11
2023-02-11T01:11:20.434Z,25.10
2023-02-11T01:13:51.484Z,25.16
2023-02-11T01:16:22.342Z,25.00
2023-02-11T01:18:53.452Z,25.13
2023-02-11T01:21:23.596Z,25.23
2023-02-11T01:23:54.575Z,25.04
2023-02-11T01:26:24.773Z,25.23
2023-02-11T01:28:54.616Z,25.19
2023-02-11T01:31:24.333Z,25.26
2023-02-11T01:33:54.998Z,25.33
2023-02-11T01:36:25.464Z,25.24
2023-02-11T01:38:55.606Z,25.00
2023-02-11T01:41:25.927Z,25.06
2023-02-11T01:44:30.438Z,25.11
2023-02-11T01:47:01.004Z,25.07
2023-02-11T01:49:34.276Z,25.02
2023-02-11T01:52:07.628Z,25.02
2023-02-11T01:55:03.255Z,25.00
2023-02-11T01:57:37.820Z,24.79
2023-02-11T02:00:14.350Z,24.73
2023-02-11T02:02:45.368Z,24.86
2023-02-11T02:05:30.010Z,24.87
2023-02-11T02:08:08.516Z,24.48
2023-02-11T02:10:42.317Z,24.40
2023-02-11T02:13:13.196Z,24.25
2023-02-11T02:15:54.124Z,24.30
2023-02-11T02:18:42.883Z,24.36
2023-02-11T02:21:46.610Z,24.28
2023-02-11T02:24:25.404Z,24.07
2023-02-11T02:27:16.063Z,24.14
2023-02-11T02:29:46.184Z,24.02
2023-02-11T02:32:18.601Z,23.94
2023-02-11T02:35:04.753Z,24.12
2023-02-11T02:37:53.237Z,23.94
2023-02-11T02:40:32.495Z,23.80
2023-02-11T02:43:04.389Z,24.14
2023-02-11T02:45:35.182Z,24.29
2023-02-11T02:48:05.499Z,24.40
2023-02-11T02:50:38.327Z,24.45
2023-02-11T02:53:25.828Z,24.38
2023-02-11T02:56:05.476Z,24.35
2023-02-11T02:58:50.278Z,24.30
2023-02-11T03:01:37.557Z,24.26
2023-02-11T03:04:21.590Z,24.22
2023-02-11T03:07:02.800Z,24.21
2023-02-11T03:09:49.461Z,24.18
2023-02-11T03:12:20.582Z,23.87
2023-02-11T03:14:53.305Z,23.54
2023-02-11T03:17:26.696Z,23.63
2023-02-11T03:19:58.884Z,23.61
2023-02-11T03:22:36.473Z,23.43
2023-02-11T03:25:07.052Z,23.26
2023-02-11T03:27:49.178Z,23.39
2023-02-11T03:30:27.752Z,23.56
2023-02-11T03:33:02.499Z,23.56
2023-02-11T03:35:43.017Z,23.46
2023-02-11T03:38:23.416Z,23.58
2023-02-11T03:40:55.961Z,23.67
2023-02-11T03:43:35.113Z,23.56
2023-02-11T03:46:06.236Z,23.33
2023-02-11T03:48:43.573Z,23.19
2023-02-11T03:51:15.649Z,23.16
2023-02-11T03:53:48.083Z,23.09
2023-02-11T03:56:23.055Z,23.06
2023-02-11T03:58:53.256Z,23.26
2023-02-11T04:01:23.641Z,23.47
2023-02-11T04:03:53.673Z,23.54
2023-02-11T04:06:23.446Z,23.54
2023-02-11T04:08:53.463Z,23.50
2023-02-11T04:11:23.280Z,23.47
2023-02-11T04:13:53.405Z,23.49
2023-02-11T04:16:22.985Z,23.53
2023-02-11T04:18:52.945Z,23.49
2023-02-11T04:21:23.132Z,23.45
2023-02-11T04:23:52.621Z,23.23
2023-02-11T04:26:22.259Z,23.36
2023-02-11T04:28:52.473Z,23.40
2023-02-11T04:31:22.694Z,23.36
2023-02-11T04:33:52.769Z,23.27
2023-02-11T04:36:22.550Z,23.30
2023-02-11T04:39:07.648Z,23.37
2023-02-11T04:41:37.638Z,23.30
2023-02-11T04:44:07.778Z,23.29
2023-02-11T04:46:38.736Z,23.30
2023-02-11T04:49:08.784Z,23.26
2023-02-11T04:51:38.542Z,23.34
2023-02-11T04:54:08.568Z,23.36
2023-02-11T04:56:38.682Z,23.34
2023-02-11T04:59:08.897Z,23.36
2023-02-11T05:01:39.681Z,23.36
2023-02-11T05:04:09.600Z,23.33
2023-02-11T05:06:40.785Z,23.34
2023-02-11T05:09:13.452Z,23.33
2023-02-11T05:11:43.585Z,23.34
2023-02-11T05:14:13.082Z,23.31
2023-02-11T05:16:43.227Z,23.16
2023-02-11T05:19:13.277Z,22.72
2023-02-11T05:21:56.673Z,22.69
2023-02-11T05:24:33.173Z,22.84
2023-02-11T05:27:03.706Z,22.91
2023-02-11T05:29:33.731Z,22.82
2023-02-11T05:32:03.663Z,22.72
2023-02-11T05:34:33.196Z,22.81
2023-02-11T05:37:02.919Z,22.85
2023-02-11T05:39:33.908Z,22.84
2023-02-11T05:42:03.933Z,22.88
2023-02-11T05:44:34.037Z,22.85
2023-02-11T05:47:04.085Z,22.85
2023-02-11T05:49:34.196Z,22.76
2023-02-11T05:52:03.758Z,22.78
2023-02-11T05:54:33.458Z,22.81
2023-02-11T05:57:03.613Z,22.79
2023-02-11T05:59:33.460Z,22.79
2023-02-11T06:02:03.554Z,22.71
2023-02-11T06:04:33.575Z,22.68
2023-02-11T06:07:03.863Z,22.72
2023-02-11T06:09:34.218Z,22.55
2023-02-11T06:12:03.715Z,22.54
2023-02-11T06:14:35.435Z,22.61
2023-02-11T06:17:05.900Z,22.68
2023-02-11T06:19:35.926Z,22.59
2023-02-11T06:22:06.165Z,22.34
2023-02-11T06:24:58.507Z,22.47
2023-02-11T06:27:27.888Z,22.37
2023-02-11T06:29:57.880Z,22.30
2023-02-11T06:32:46.167Z,22.21
2023-02-11T06:35:16.591Z,22.21
2023-02-11T06:37:46.643Z,22.34
2023-02-11T06:40:16.753Z,22.37
2023-02-11T06:42:46.809Z,22.43
2023-02-11T06:45:16.544Z,22.47
2023-02-11T06:47:46.300Z,22.44
2023-02-11T06:50:16.729Z,22.38
2023-02-11T06:52:46.865Z,22.37
2023-02-11T06:55:16.939Z,22.40
2023-02-11T06:57:47.037Z,22.37
2023-02-11T07:00:16.755Z,22.40
2023-02-11T07:02:46.510Z,22.37
2023-02-11T07:05:16.515Z,22.35
2023-02-11T07:07:46.557Z,22.18
2023-02-11T07:10:16.588Z,22.00
2023-02-11T07:12:46.486Z,21.97
2023-02-11T07:15:16.070Z,21.83
2023-02-11T07:17:45.760Z,21.85
2023-02-11T07:20:16.123Z,21.96
2023-02-11T07:22:46.185Z,22.00
2023-02-11T07:25:16.304Z,22.06
2023-02-11T07:27:46.318Z,22.06
2023-02-11T07:30:16.909Z,21.94
2023-02-11T07:32:46.973Z,21.92
2023-02-11T07:35:17.404Z,21.90
2023-02-11T07:37:47.375Z,21.94
2023-02-11T07:40:17.524Z,21.96
2023-02-11T07:42:47.037Z,21.97
2023-02-11T07:45:17.530Z,22.04
2023-02-11T07:47:47.589Z,22.07
2023-02-11T07:50:18.876Z,22.08
2023-02-11T07:52:49.090Z,22.06
2023-02-11T07:55:19.314Z,22.04
2023-02-11T07:57:48.810Z,22.03
2023-02-11T08:00:21.125Z,22.03
2023-02-11T08:02:51.273Z,22.01
2023-02-11T08:05:21.463Z,22.00
2023-02-11T08:07:54.374Z,21.94
2023-02-11T08:10:25.574Z,21.92
2023-02-11T08:12:56.286Z,21.90
2023-02-11T08:15:26.555Z,21.86
2023-02-11T08:17:56.330Z,21.47
2023-02-11T08:20:26.545Z,21.56
2023-02-11T08:22:56.086Z,21.60
2023-02-11T08:25:25.688Z,21.57
2023-02-11T08:27:55.754Z,21.60
2023-02-11T08:30:27.569Z,21.53
2023-02-11T08:32:57.917Z,21.50
2023-02-11T08:35:27.515Z,21.52
2023-02-11T08:37:57.173Z,21.47
2023-02-11T08:40:27.192Z,21.42
2023-02-11T08:42:57.185Z,21.35
2023-02-11T08:45:27.208Z,21.34
2023-02-11T08:47:57.229Z,21.28
2023-02-11T08:50:29.441Z,20.92
2023-02-11T08:52:59.436Z,20.68
2023-02-11T08:55:29.389Z,20.70
2023-02-11T08:57:59.396Z,20.83
2023-02-11T09:00:29.428Z,20.80
2023-02-11T09:02:59.448Z,20.83
2023-02-11T09:05:29.475Z,20.78
2023-02-11T09:07:59.481Z,20.63
2023-02-11T09:10:29.516Z,20.46
2023-02-11T09:12:59.519Z,20.51
2023-02-11T09:15:29.583Z,20.57
2023-02-11T09:18:00.253Z,20.63
2023-02-11T09:20:30.435Z,20.60
2023-02-11T09:23:01.120Z,20.57
2023-02-11T09:25:31.111Z,20.54
2023-02-11T09:28:01.103Z,20.50
2023-02-11T09:30:31.787Z,20.58
2023-02-11T09:33:01.767Z,20.71
2023-02-11T09:35:31.722Z,20.85
2023-02-11T09:38:01.186Z,21.02
2023-02-11T09:40:30.855Z,21.06
2023-02-11T09:43:15.426Z,21.16
2023-02-11T09:45:45.609Z,21.12
2023-02-11T09:48:15.259Z,21.05
2023-02-11T09:50:56.041Z,20.95
2023-02-11T09:53:28.989Z,21.02
2023-02-11T09:56:02.827Z,21.05
2023-02-11T09:58:37.632Z,21.24
2023-02-11T10:01:25.836Z,21.45
2023-02-11T10:04:17.530Z,21.56
2023-02-11T10:06:56.678Z,21.59
2023-02-11T10:09:35.757Z,21.60
2023-02-11T10:12:34.120Z,21.60
2023-02-11T10:15:17.667Z,21.63
2023-02-11T10:18:21.494Z,21.75
2023-02-11T10:21:19.314Z,21.82
2023-02-11T10:23:56.108Z,21.94
2023-02-11T10:26:29.249Z,22.08
2023-02-11T10:29:06.336Z,22.21
2023-02-11T10:31:41.531Z,22.38
2023-02-11T10:34:14.092Z,22.51
2023-02-11T10:36:46.174Z,22.62
2023-02-11T10:39:28.511Z,22.69
2023-02-11T10:42:03.754Z,22.81
2023-02-11T10:44:35.359Z,22.96
2023-02-11T10:47:22.551Z,23.05
2023-02-11T10:49:52.533Z,23.19
2023-02-11T10:52:28.989Z,23.30
2023-02-11T10:55:29.829Z,23.42
2023-02-11T10:58:05.466Z,23.42
2023-02-11T11:00:42.041Z,23.50
2023-02-11T11:03:33.207Z,23.64
2023-02-11T11:06:05.700Z,23.74
2023-02-11T11:08:46.439Z,23.85
2023-02-11T11:11:23.030Z,23.94
2023-02-11T11:14:00.344Z,24.02
2023-02-11T11:16:39.076Z,24.12
2023-02-11T11:19:09.553Z,24.21
2023-02-11T11:21:46.779Z,24.30
2023-02-11T11:24:28.032Z,24.35
2023-02-11T11:27:02.557Z,24.43
2023-02-11T11:29:47.630Z,24.56
2023-02-11T11:32:21.553Z,24.59
2023-02-11T11:34:56.708Z,24.72
2023-02-11T11:37:32.870Z,24.82
2023-02-11T11:40:24.194Z,24.91
2023-02-11T11:43:08.525Z,25.04
2023-02-11T11:45:38.532Z,25.04
2023-02-11T11:48:41.556Z,25.13
2023-02-11T11:51:15.347Z,25.17
2023-02-11T11:53:56.785Z,25.26
2023-02-11T11:56:37.037Z,25.30
2023-02-11T11:59:17.564Z,25.41
2023-02-11T12:02:02.177Z,25.57
2023-02-11T12:04:35.165Z,25.71
2023-02-11T12:07:20.162Z,25.74
2023-02-11T12:10:13.298Z,25.93
2023-02-11T12:12:46.962Z,26.03
2023-02-11T12:15:45.324Z,26.16
2023-02-11T12:18:18.075Z,26.30
2023-02-11T12:21:21.770Z,26.49
2023-02-11T12:24:30.693Z,26.65
2023-02-11T12:27:12.985Z,26.64
2023-02-11T12:30:04.931Z,26.80
2023-02-11T12:32:56.508Z,26.95
2023-02-11T12:35:50.584Z,27.04
2023-02-11T12:38:49.308Z,27.14
2023-02-11T12:42:18.712Z,27.30
2023-02-11T12:45:10.479Z,27.43
2023-02-11T12:48:02.017Z,27.56
2023-02-11T12:50:50.294Z,27.65
2023-02-11T12:53:45.818Z,27.88
2023-02-11T12:56:21.560Z,28.02
2023-02-11T12:58:55.782Z,28.21
2023-02-11T13:01:32.875Z,28.36
2023-02-11T13:04:31.879Z,28.60
2023-02-11T13:07:10.393Z,28.78
2023-02-11T13:09:56.622Z,28.92
2023-02-11T13:12:46.408Z,29.02
2023-02-11T13:15:17.356Z,29.08
2023-02-11T13:18:06.361Z,29.22
2023-02-11T13:20:51.451Z,29.39
2023-02-11T13:24:19.211Z,29.62
2023-02-11T13:27:00.594Z,29.52
2023-02-11T13:29:54.575Z,29.54
2023-02-11T13:32:24.603Z,29.85
2023-02-11T13:34:54.320Z,29.87
2023-02-11T13:37:25.240Z,30.04
2023-02-11T13:40:03.916Z,30.15
2023-02-11T13:42:46.300Z,30.25
2023-02-11T13:45:39.027Z,30.46
2023-02-11T13:48:17.525Z,30.55
2023-02-11T13:50:54.959Z,30.56
2023-02-11T13:53:26.007Z,30.51
2023-02-11T13:56:13.294Z,30.52
2023-02-11T13:58:51.532Z,30.75
2023-02-11T14:02:21.964Z,30.90
2023-02-11T14:05:25.051Z,31.02
2023-02-11T14:08:31.147Z,31.16
2023-02-11T14:11:09.615Z,31.29
2023-02-11T14:14:19.942Z,31.34
2023-02-11T14:17:08.050Z,31.50
2023-02-11T14:19:38.289Z,31.48
2023-02-11T14:22:17.701Z,31.30
2023-02-11T14:24:54.774Z,31.34
2023-02-11T14:27:47.937Z,31.67
2023-02-11T14:30:36.741Z,31.82
2023-02-11T14:33:24.531Z,31.82
2023-02-11T14:36:02.876Z,31.88
2023-02-11T14:38:51.237Z,32.29
2023-02-11T14:41:36.100Z,32.51
2023-02-11T14:44:20.405Z,32.57
2023-02-11T14:46:54.487Z,32.52
2023-02-11T14:49:38.152Z,32.37
2023-02-11T14:52:40.685Z,32.53
2023-02-11T14:55:33.280Z,32.79
2023-02-11T14:58:19.922Z,33.20
2023-02-11T15:01:04.568Z,33.31
2023-02-11T15:03:41.132Z,33.17
2023-02-11T15:06:33.855Z,33.26
2023-02-11T15:09:15.628Z,33.14
2023-02-11T15:11:49.269Z,33.38
2023-02-11T15:14:48.238Z,33.62
2023-02-11T15:17:25.135Z,33.59
2023-02-11T15:20:01.843Z,33.35
2023-02-11T15:22:38.097Z,33.34
2023-02-11T15:25:18.506Z,33.51
2023-02-11T15:27:51.343Z,33.81
2023-02-11T15:30:24.409Z,34.04
2023-02-11T15:32:59.962Z,34.05
2023-02-11T15:35:42.384Z,34.15
2023-02-11T15:38:14.612Z,33.92
2023-02-11T15:41:01.804Z,34.04
2023-02-11T15:43:55.378Z,34.32
2023-02-11T15:46:25.686Z,34.33
2023-02-11T15:48:57.039Z,34.57
2023-02-11T15:51:47.107Z,34.71
2023-02-11T15:54:28.574Z,34.79
2023-02-11T15:57:06.377Z,34.96
2023-02-11T15:59:50.939Z,34.57
2023-02-11T16:02:23.092Z,34.56
2023-02-11T16:05:07.447Z,34.71
2023-02-11T16:07:44.506Z,34.67
2023-02-11T16:10:34.635Z,34.87
2023-02-11T16:13:10.876Z,35.19
2023-02-11T16:15:50.838Z,35.30
2023-02-11T16:18:40.358Z,35.31
2023-02-11T16:21:19.496Z,35.62
2023-02-11T16:23:55.992Z,36.00
2023-02-11T16:26:44.339Z,36.12
2023-02-11T16:29:18.341Z,36.00
2023-02-11T16:31:49.910Z,35.78
2023-02-11T16:34:23.380Z,35.89
2023-02-11T16:36:54.429Z,35.85
2023-02-11T16:39:24.765Z,36.05
2023-02-11T16:41:54.858Z,36.15
2023-02-11T16:44:25.083Z,36.05
2023-02-11T16:46:56.457Z,36.19
2023-02-11T16:49:31.212Z,36.15
2023-02-11T16:52:03.071Z,35.96
2023-02-11T16:54:33.396Z,35.79
2023-02-11T16:57:07.518Z,35.89
2023-02-11T16:59:37.480Z,35.84
2023-02-11T17:02:17.260Z,35.89
2023-02-11T17:04:48.343Z,36.25
2023-02-11T17:07:18.502Z,36.00
2023-02-11T17:09:48.701Z,35.88
2023-02-11T17:12:18.564Z,35.76
2023-02-11T17:14:48.892Z,36.07
2023-02-11T17:17:18.944Z,36.20
2023-02-11T17:19:48.943Z,36.16
2023-02-11T17:22:19.846Z,36.17
2023-02-11T17:24:49.942Z,36.20
2023-02-11T17:27:20.089Z,36.33
2023-02-11T17:29:50.293Z,36.29
2023-02-11T17:32:20.476Z,36.33
2023-02-11T17:34:50.586Z,36.36
2023-02-11T17:37:20.694Z,36.15
2023-02-11T17:39:52.073Z,36.15
2023-02-11T17:42:22.231Z,35.99
2023-02-11T17:44:52.312Z,36.02
2023-02-11T17:47:23.098Z,36.05
2023-02-11T17:49:53.645Z,36.15
2023-02-11T17:52:25.370Z,36.26
2023-02-11T17:54:56.458Z,36.16
2023-02-11T17:57:26.655Z,36.05
2023-02-11T17:59:56.816Z,35.89
2023-02-11T18:02:26.942Z,35.88
2023-02-11T18:04:58.609Z,35.84
2023-02-11T18:07:29.779Z,35.82
2023-02-11T18:09:59.769Z,36.02
2023-02-11T18:12:29.748Z,36.09
2023-02-11T18:14:59.682Z,35.79
2023-02-11T18:17:29.654Z,35.56
2023-02-11T18:20:00.138Z,35.58
2023-02-11T18:22:32.073Z,35.54
2023-02-11T18:25:02.258Z,35.78
2023-02-11T18:27:32.294Z,35.37
2023-02-11T18:30:02.333Z,34.87
2023-02-11T18:32:32.868Z,34.94
2023-02-11T18:35:02.919Z,35.13
2023-02-11T18:37:32.992Z,35.28
2023-02-11T18:40:04.405Z,35.03
2023-02-11T18:42:35.460Z,34.93
2023-02-11T18:45:10.674Z,35.03
2023-02-11T18:47:40.977Z,35.15
2023-02-11T18:50:14.786Z,35.19
2023-02-11T18:52:44.842Z,35.07
2023-02-11T18:55:14.989Z,34.98
2023-02-11T18:57:45.125Z,34.93
2023-02-11T19:00:15.889Z,34.61
2023-02-11T19:02:46.093Z,34.93
2023-02-11T19:05:16.817Z,34.90
2023-02-11T19:07:47.018Z,34.94
2023-02-11T19:10:17.083Z,34.87
2023-02-11T19:12:47.154Z,34.76
2023-02-11T19:15:17.259Z,34.79
2023-02-11T19:17:47.411Z,34.88
2023-02-11T19:20:17.628Z,34.66
2023-02-11T19:22:47.671Z,34.70
2023-02-11T19:25:17.685Z,34.84
2023-02-11T19:27:47.855Z,35.18
2023-02-11T19:30:17.719Z,36.97
2023-02-11T19:32:47.852Z,37.10
2023-02-11T19:35:17.976Z,35.41
2023-02-11T19:37:48.050Z,35.27
2023-02-11T19:40:18.311Z,35.03
2023-02-11T19:42:48.730Z,37.21
2023-02-11T19:45:18.800Z,36.44
2023-02-11T19:47:48.593Z,36.76
2023-02-11T19:50:18.690Z,35.82
2023-02-11T19:52:48.958Z,34.67
2023-02-11T19:55:19.118Z,34.52
2023-02-11T19:57:49.338Z,34.35
2023-02-11T20:00:20.143Z,34.42
2023-02-11T20:02:50.264Z,34.67
2023-02-11T20:05:20.304Z,34.09
2023-02-11T20:07:50.297Z,33.98
2023-02-11T20:10:20.531Z,33.94
2023-02-11T20:12:54.110Z,33.94
2023-02-11T20:15:24.261Z,33.92
2023-02-11T20:17:54.758Z,34.33
2023-02-11T20:20:25.067Z,34.37
2023-02-11T20:23:14.511Z,34.82
2023-02-11T20:25:44.655Z,33.91
2023-02-11T20:28:14.906Z,33.85
2023-02-11T20:30:45.037Z,33.59
2023-02-11T20:33:15.356Z,33.50
2023-02-11T20:35:45.357Z,33.40
2023-02-11T20:38:15.441Z,33.41
2023-02-11T20:40:45.606Z,33.30
2023-02-11T20:43:16.540Z,33.34
2023-02-11T20:45:47.355Z,33.28
2023-02-11T20:48:17.556Z,33.20
2023-02-11T20:50:48.419Z,33.37
2023-02-11T20:53:18.554Z,33.04
2023-02-11T20:55:48.636Z,32.91
2023-02-11T20:58:19.101Z,32.88
2023-02-11T21:00:50.029Z,32.70
2023-02-11T21:03:20.158Z,32.49
2023-02-11T21:05:50.121Z,32.36
2023-02-11T21:08:20.499Z,32.33
2023-02-11T21:10:50.522Z,32.26
2023-02-11T21:13:21.097Z,32.16
2023-02-11T21:15:56.942Z,32.05
2023-02-11T21:18:27.724Z,31.96
2023-02-11T21:20:58.968Z,31.85
2023-02-11T21:23:30.175Z,31.80
2023-02-11T21:26:00.389Z,31.73
2023-02-11T21:28:30.683Z,31.61
2023-02-11T21:31:01.238Z,31.54
2023-02-11T21:33:35.706Z,31.46
2023-02-11T21:36:09.089Z,31.41
2023-02-11T21:38:39.074Z,31.27
2023-02-11T21:41:09.091Z,31.15
2023-02-11T21:43:39.342Z,31.04
2023-02-11T21:46:12.052Z,30.93
2023-02-11T21:48:42.242Z,30.86
2023-02-11T21:51:17.551Z,30.90
2023-02-11T21:53:47.860Z,31.04
2023-02-11T21:56:19.875Z,30.93
2023-02-11T21:58:54.865Z,30.59
2023-02-11T22:01:30.670Z,30.32
2023-02-11T22:04:01.341Z,30.15
2023-02-11T22:06:34.754Z,29.98
2023-02-11T22:09:07.642Z,29.91
2023-02-11T22:11:38.025Z,29.73
2023-02-11T22:14:08.136Z,29.63
2023-02-11T22:16:38.494Z,29.49
2023-02-11T22:19:09.001Z,29.37
2023-02-11T22:21:39.256Z,29.33
2023-02-11T22:24:09.302Z,29.18
2023-02-11T22:26:39.618Z,29.05
2023-02-11T22:29:09.788Z,28.99
2023-02-11T22:31:40.331Z,28.94
2023-02-11T22:34:10.769Z,28.79
2023-02-11T22:36:42.706Z,28.67
2023-02-11T22:39:18.735Z,28.67
2023-02-11T22:41:49.597Z,28.55
2023-02-11T22:44:21.145Z,28.43
2023-02-11T22:46:51.851Z,28.40
2023-02-11T22:49:23.376Z,28.37
2023-02-11T22:51:53.471Z,28.37
2023-02-11T22:54:24.001Z,28.18
2023-02-11T22:56:54.464Z,28.07
2023-02-11T22:59:24.812Z,27.99
2023-02-11T23:01:54.960Z,27.94
2023-02-11T23:04:25.135Z,27.86
2023-02-11T23:06:54.400Z,27.88
2023-02-11T23:09:24.033Z,27.79
2023-02-11T23:11:55.558Z,27.69
2023-02-11T23:14:25.647Z,27.67
2023-02-11T23:16:55.548Z,27.61
2023-02-11T23:19:25.682Z,27.49
2023-02-11T23:21:58.722Z,27.42
2023-02-11T23:24:30.217Z,27.38
2023-02-11T23:27:00.388Z,27.34
2023-02-11T23:29:30.570Z,27.27
2023-02-11T23:32:00.785Z,27.28
2023-02-11T23:34:30.183Z,27.24
2023-02-11T23:37:00.783Z,27.20
2023-02-11T23:39:30.942Z,27.18
2023-02-11T23:42:02.233Z,27.05
2023-02-11T23:44:32.299Z,27.00
2023-02-11T23:47:02.360Z,26.92
2023-02-11T23:49:32.451Z,26.91
2023-02-11T23:52:02.495Z,26.88
2023-02-11T23:54:31.979Z,26.84
2023-02-11T23:57:01.877Z,26.76
2023-02-11T23:59:31.936Z,26.73
